sensor_id;sensor_type;location;lat;lon;timestamp;pressure;altitude;pressure_sealevel;temperature;humidity
50854;BME280;44154;45.506;-122.806;2022-12-07T00:01:40;101258.00;;;25.42;33.04
50854;BME280;44154;45.506;-122.806;2022-12-07T00:04:11;101253.53;;;25.36;32.93
50854;BME280;44154;45.506;-122.806;2022-12-07T00:06:40;101267.81;;;25.38;33.34
50854;BME280;44154;45.506;-122.806;2022-12-07T00:09:10;101261.16;;;25.34;33.36
50854;BME280;44154;45.506;-122.806;2022-12-07T00:11:36;101188.50;;;24.80;33.66
50854;BME280;44154;45.506;-122.806;2022-12-07T00:14:06;101257.97;;;25.25;33.28
50854;BME280;44154;45.506;-122.806;2022-12-07T00:16:33;101271.34;;;25.21;33.14
50854;BME280;44154;45.506;-122.806;2022-12-07T00:19:00;101261.97;;;25.17;33.08
50854;BME280;44154;45.506;-122.806;2022-12-07T00:21:29;101258.56;;;25.10;32.79
50854;BME280;44154;45.506;-122.806;2022-12-07T00:23:56;101235.63;;;24.99;32.84
50854;BME280;44154;45.506;-122.806;2022-12-07T00:26:27;101266.53;;;25.28;33.08
50854;BME280;44154;45.506;-122.806;2022-12-07T00:29:03;101272.78;;;25.41;32.86
50854;BME280;44154;45.506;-122.806;2022-12-07T00:31:32;101276.78;;;25.50;32.65
50854;BME280;44154;45.506;-122.806;2022-12-07T00:34:00;101270.22;;;25.51;32.60
50854;BME280;44154;45.506;-122.806;2022-12-07T00:36:27;101285.56;;;25.52;32.52
50854;BME280;44154;45.506;-122.806;2022-12-07T00:38:54;101281.41;;;25.50;32.24
50854;BME280;44154;45.506;-122.806;2022-12-07T00:41:24;101274.53;;;25.47;32.47
50854;BME280;44154;45.506;-122.806;2022-12-07T00:43:51;101250.19;;;25.17;32.57
50854;BME280;44154;45.506;-122.806;2022-12-07T00:46:18;101282.09;;;25.40;32.39
50854;BME280;44154;45.506;-122.806;2022-12-07T00:48:44;101282.59;;;25.37;32.40
50854;BME280;44154;45.506;-122.806;2022-12-07T00:51:13;101291.31;;;25.34;32.33
50854;BME280;44154;45.506;-122.806;2022-12-07T00:53:40;101252.97;;;25.05;32.31
50854;BME280;44154;45.506;-122.806;2022-12-07T00:56:18;101289.28;;;25.29;32.50
50854;BME280;44154;45.506;-122.806;2022-12-07T00:58:53;101279.38;;;25.28;32.61
50854;BME280;44154;45.506;-122.806;2022-12-07T01:01:20;101260.16;;;25.23;32.50
50854;BME280;44154;45.506;-122.806;2022-12-07T01:03:46;101299.38;;;25.57;31.97
50854;BME280;44154;45.506;-122.806;2022-12-07T01:06:16;101277.84;;;25.49;31.93
50854;BME280;44154;45.506;-122.806;2022-12-07T01:08:44;101291.72;;;25.59;32.34
50854;BME280;44154;45.506;-122.806;2022-12-07T01:11:13;101284.25;;;25.55;32.08
50854;BME280;44154;45.506;-122.806;2022-12-07T01:13:40;101224.28;;;25.07;31.95
50854;BME280;44154;45.506;-122.806;2022-12-07T01:16:07;101286.59;;;25.46;32.18
50854;BME280;44154;45.506;-122.806;2022-12-07T01:18:35;101291.97;;;25.41;31.75
50854;BME280;44154;45.506;-122.806;2022-12-07T01:21:05;101266.44;;;25.23;31.95
50854;BME280;44154;45.506;-122.806;2022-12-07T01:23:32;101286.78;;;25.27;31.98
50854;BME280;44154;45.506;-122.806;2022-12-07T01:26:01;101301.19;;;25.35;32.39
50854;BME280;44154;45.506;-122.806;2022-12-07T01:28:28;101281.63;;;25.14;32.56
50854;BME280;44154;45.506;-122.806;2022-12-07T01:31:02;101308.00;;;25.32;32.20
50854;BME280;44154;45.506;-122.806;2022-12-07T01:33:31;101296.00;;;25.21;32.30
50854;BME280;44154;45.506;-122.806;2022-12-07T01:36:21;101303.72;;;25.24;32.37
50854;BME280;44154;45.506;-122.806;2022-12-07T01:38:49;101260.59;;;24.86;32.75
50854;BME280;44154;45.506;-122.806;2022-12-07T01:41:18;101309.31;;;25.30;33.16
50854;BME280;44154;45.506;-122.806;2022-12-07T01:46:33;101308.09;;;25.54;33.00
50854;BME280;44154;45.506;-122.806;2022-12-07T01:48:59;101316.63;;;25.58;32.46
50854;BME280;44154;45.506;-122.806;2022-12-07T01:51:26;101262.63;;;25.24;33.69
50854;BME280;44154;45.506;-122.806;2022-12-07T01:53:54;101281.59;;;25.43;34.30
50854;BME280;44154;45.506;-122.806;2022-12-07T01:56:25;101313.81;;;25.70;34.12
50854;BME280;44154;45.506;-122.806;2022-12-07T01:58:53;101315.88;;;25.79;33.72
50854;BME280;44154;45.506;-122.806;2022-12-07T02:01:21;101316.78;;;25.85;34.04
50854;BME280;44154;45.506;-122.806;2022-12-07T02:03:48;101315.72;;;25.86;33.68
50854;BME280;44154;45.506;-122.806;2022-12-07T02:06:17;101312.13;;;25.86;33.62
50854;BME280;44154;45.506;-122.806;2022-12-07T02:08:46;101295.78;;;25.74;33.84
50854;BME280;44154;45.506;-122.806;2022-12-07T02:11:13;101291.69;;;25.76;33.89
50854;BME280;44154;45.506;-122.806;2022-12-07T02:13:41;101296.94;;;25.78;33.90
50854;BME280;44154;45.506;-122.806;2022-12-07T02:19:43;101295.72;;;25.69;33.16
50854;BME280;44154;45.506;-122.806;2022-12-07T02:31:12;101313.31;;;25.39;33.66
50854;BME280;44154;45.506;-122.806;2022-12-07T02:33:52;101315.13;;;25.33;34.25
50854;BME280;44154;45.506;-122.806;2022-12-07T02:39:02;101236.03;;;24.74;34.37
50854;BME280;44154;45.506;-122.806;2022-12-07T02:41:43;101316.50;;;25.19;34.61
50854;BME280;44154;45.506;-122.806;2022-12-07T02:44:14;101318.41;;;25.18;34.84
50854;BME280;44154;45.506;-122.806;2022-12-07T02:46:47;101318.84;;;25.27;34.55
50854;BME280;44154;45.506;-122.806;2022-12-07T02:49:16;101314.31;;;25.33;34.35
50854;BME280;44154;45.506;-122.806;2022-12-07T02:51:44;101314.13;;;25.39;34.20
50854;BME280;44154;45.506;-122.806;2022-12-07T02:54:14;101319.28;;;25.36;34.14
50854;BME280;44154;45.506;-122.806;2022-12-07T02:59:46;101311.44;;;25.27;34.34
50854;BME280;44154;45.506;-122.806;2022-12-07T03:03:11;101294.84;;;25.17;34.30
50854;BME280;44154;45.506;-122.806;2022-12-07T03:13:26;101324.63;;;25.14;34.23
50854;BME280;44154;45.506;-122.806;2022-12-07T03:16:14;101323.78;;;25.13;33.99
50854;BME280;44154;45.506;-122.806;2022-12-07T03:18:51;101322.56;;;25.21;34.56
50854;BME280;44154;45.506;-122.806;2022-12-07T03:21:23;101300.88;;;25.19;34.31
50854;BME280;44154;45.506;-122.806;2022-12-07T03:23:54;101313.31;;;25.39;33.96
50854;BME280;44154;45.506;-122.806;2022-12-07T03:26:24;101312.31;;;25.45;33.76
50854;BME280;44154;45.506;-122.806;2022-12-07T03:28:57;101306.78;;;25.40;33.96
50854;BME280;44154;45.506;-122.806;2022-12-07T03:31:32;101316.63;;;25.41;33.86
50854;BME280;44154;45.506;-122.806;2022-12-07T03:37:12;101297.56;;;25.17;34.24
50854;BME280;44154;45.506;-122.806;2022-12-07T03:39:57;101337.78;;;25.28;33.96
50854;BME280;44154;45.506;-122.806;2022-12-07T03:42:26;101323.91;;;25.18;34.29
50854;BME280;44154;45.506;-122.806;2022-12-07T03:44:52;101337.34;;;25.20;34.24
50854;BME280;44154;45.506;-122.806;2022-12-07T03:50:34;101332.75;;;25.08;33.80
50854;BME280;44154;45.506;-122.806;2022-12-07T03:53:13;101344.06;;;25.29;34.22
50854;BME280;44154;45.506;-122.806;2022-12-07T03:55:43;101342.88;;;25.37;33.92
50854;BME280;44154;45.506;-122.806;2022-12-07T03:58:12;101339.53;;;25.35;33.68
50854;BME280;44154;45.506;-122.806;2022-12-07T04:00:42;101347.19;;;25.33;33.68
50854;BME280;44154;45.506;-122.806;2022-12-07T04:03:08;101344.25;;;25.22;34.07
50854;BME280;44154;45.506;-122.806;2022-12-07T04:05:35;101328.03;;;25.04;33.91
50854;BME280;44154;45.506;-122.806;2022-12-07T04:08:01;101343.78;;;25.14;33.89
50854;BME280;44154;45.506;-122.806;2022-12-07T04:10:27;101350.00;;;25.09;33.91
50854;BME280;44154;45.506;-122.806;2022-12-07T04:12:53;101352.19;;;25.07;33.94
50854;BME280;44154;45.506;-122.806;2022-12-07T04:15:19;101362.19;;;25.01;33.57
50854;BME280;44154;45.506;-122.806;2022-12-07T04:17:45;101308.19;;;24.68;33.96
50854;BME280;44154;45.506;-122.806;2022-12-07T04:20:12;101328.28;;;24.90;34.11
50854;BME280;44154;45.506;-122.806;2022-12-07T04:22:38;101362.81;;;25.20;33.72
50854;BME280;44154;45.506;-122.806;2022-12-07T04:25:05;101360.75;;;25.27;33.57
50854;BME280;44154;45.506;-122.806;2022-12-07T04:27:31;101359.78;;;25.34;33.64
50854;BME280;44154;45.506;-122.806;2022-12-07T04:29:57;101344.00;;;25.24;33.82
50854;BME280;44154;45.506;-122.806;2022-12-07T04:32:24;101342.47;;;25.16;33.60
50854;BME280;44154;45.506;-122.806;2022-12-07T04:34:50;101351.03;;;25.20;33.80
50854;BME280;44154;45.506;-122.806;2022-12-07T04:37:16;101360.22;;;25.14;33.82
50854;BME280;44154;45.506;-122.806;2022-12-07T04:39:43;101356.59;;;25.08;33.86
50854;BME280;44154;45.506;-122.806;2022-12-07T04:42:11;101357.53;;;25.02;33.82
50854;BME280;44154;45.506;-122.806;2022-12-07T04:44:38;101355.78;;;24.96;33.81
50854;BME280;44154;45.506;-122.806;2022-12-07T04:47:04;101314.97;;;24.65;33.76
50854;BME280;44154;45.506;-122.806;2022-12-07T04:49:30;101335.75;;;24.78;33.72
50854;BME280;44154;45.506;-122.806;2022-12-07T04:51:57;101343.72;;;24.80;33.81
50854;BME280;44154;45.506;-122.806;2022-12-07T04:54:23;101361.66;;;24.87;34.06
50854;BME280;44154;45.506;-122.806;2022-12-07T04:56:49;101332.19;;;24.66;33.88
50854;BME280;44154;45.506;-122.806;2022-12-07T04:59:16;101370.09;;;24.86;33.93
50854;BME280;44154;45.506;-122.806;2022-12-07T05:01:43;101348.81;;;24.76;34.11
50854;BME280;44154;45.506;-122.806;2022-12-07T05:04:09;101330.78;;;24.63;34.04
50854;BME280;44154;45.506;-122.806;2022-12-07T05:06:35;101353.38;;;24.70;33.86
50854;BME280;44154;45.506;-122.806;2022-12-07T05:09:03;101360.38;;;24.78;33.94
50854;BME280;44154;45.506;-122.806;2022-12-07T05:11:29;101366.91;;;24.77;33.87
50854;BME280;44154;45.506;-122.806;2022-12-07T05:14:15;101373.09;;;24.84;34.43
50854;BME280;44154;45.506;-122.806;2022-12-07T05:16:43;101358.34;;;24.85;34.60
50854;BME280;44154;45.506;-122.806;2022-12-07T05:19:10;101334.81;;;24.72;34.30
50854;BME280;44154;45.506;-122.806;2022-12-07T05:21:37;101335.75;;;24.78;34.01
50854;BME280;44154;45.506;-122.806;2022-12-07T05:24:04;101356.41;;;24.86;33.92
50854;BME280;44154;45.506;-122.806;2022-12-07T05:26:31;101343.84;;;24.73;33.72
50854;BME280;44154;45.506;-122.806;2022-12-07T05:28:57;101363.31;;;24.88;34.31
50854;BME280;44154;45.506;-122.806;2022-12-07T05:31:25;101359.97;;;24.86;33.92
50854;BME280;44154;45.506;-122.806;2022-12-07T05:33:51;101353.59;;;24.81;33.91
50854;BME280;44154;45.506;-122.806;2022-12-07T05:36:17;101342.66;;;24.69;33.98
50854;BME280;44154;45.506;-122.806;2022-12-07T05:38:44;101355.63;;;24.73;33.65
50854;BME280;44154;45.506;-122.806;2022-12-07T05:41:13;101368.94;;;24.82;33.73
50854;BME280;44154;45.506;-122.806;2022-12-07T05:43:59;101365.16;;;24.71;33.95
50854;BME280;44154;45.506;-122.806;2022-12-07T05:46:25;101367.75;;;24.77;33.79
50854;BME280;44154;45.506;-122.806;2022-12-07T05:48:52;101322.09;;;24.54;33.81
50854;BME280;44154;45.506;-122.806;2022-12-07T05:51:18;101366.44;;;24.80;34.32
50854;BME280;44154;45.506;-122.806;2022-12-07T05:53:45;101370.84;;;24.81;34.38
50854;BME280;44154;45.506;-122.806;2022-12-07T05:56:11;101340.78;;;24.69;34.25
50854;BME280;44154;45.506;-122.806;2022-12-07T05:58:37;101321.00;;;24.67;33.81
50854;BME280;44154;45.506;-122.806;2022-12-07T06:01:22;101312.31;;;24.58;33.78
50854;BME280;44154;45.506;-122.806;2022-12-07T06:03:48;101336.69;;;24.72;33.66
50854;BME280;44154;45.506;-122.806;2022-12-07T06:06:14;101360.38;;;24.78;33.54
50854;BME280;44154;45.506;-122.806;2022-12-07T06:08:40;101370.84;;;24.81;33.64
50854;BME280;44154;45.506;-122.806;2022-12-07T06:11:07;101355.41;;;24.63;33.55
50854;BME280;44154;45.506;-122.806;2022-12-07T06:13:51;101335.06;;;24.47;33.47
50854;BME280;44154;45.506;-122.806;2022-12-07T06:16:17;101340.75;;;24.57;33.44
50854;BME280;44154;45.506;-122.806;2022-12-07T06:18:43;101366.72;;;24.67;33.45
50854;BME280;44154;45.506;-122.806;2022-12-07T06:21:10;101362.31;;;24.54;33.57
50854;BME280;44154;45.506;-122.806;2022-12-07T06:23:36;101371.69;;;24.70;33.64
50854;BME280;44154;45.506;-122.806;2022-12-07T06:26:02;101376.81;;;24.78;33.68
50854;BME280;44154;45.506;-122.806;2022-12-07T06:28:28;101363.00;;;24.73;33.60
50854;BME280;44154;45.506;-122.806;2022-12-07T06:31:01;101356.47;;;24.74;33.23
50854;BME280;44154;45.506;-122.806;2022-12-07T06:33:28;101375.94;;;24.89;33.22
50854;BME280;44154;45.506;-122.806;2022-12-07T06:35:54;101372.09;;;24.90;32.97
50854;BME280;44154;45.506;-122.806;2022-12-07T06:38:21;101337.44;;;24.55;33.09
50854;BME280;44154;45.506;-122.806;2022-12-07T06:40:47;101291.44;;;24.29;32.98
50854;BME280;44154;45.506;-122.806;2022-12-07T06:43:13;101315.81;;;24.42;33.01
50854;BME280;44154;45.506;-122.806;2022-12-07T06:45:41;101355.28;;;24.58;32.88
50854;BME280;44154;45.506;-122.806;2022-12-07T06:48:07;101377.88;;;24.77;32.87
50854;BME280;44154;45.506;-122.806;2022-12-07T06:50:33;101385.50;;;24.75;32.87
50854;BME280;44154;45.506;-122.806;2022-12-07T06:52:59;101385.75;;;24.73;33.01
50854;BME280;44154;45.506;-122.806;2022-12-07T06:55:25;101349.59;;;24.48;32.73
50854;BME280;44154;45.506;-122.806;2022-12-07T06:57:51;101382.41;;;24.71;33.28
50854;BME280;44154;45.506;-122.806;2022-12-07T07:00:18;101376.19;;;24.76;33.29
50854;BME280;44154;45.506;-122.806;2022-12-07T07:02:44;101344.81;;;24.67;33.26
50854;BME280;44154;45.506;-122.806;2022-12-07T07:05:10;101339.84;;;24.64;32.99
50854;BME280;44154;45.506;-122.806;2022-12-07T07:07:36;101389.38;;;24.91;33.03
50854;BME280;44154;45.506;-122.806;2022-12-07T07:10:02;101360.63;;;24.76;32.86
50854;BME280;44154;45.506;-122.806;2022-12-07T07:12:28;101387.34;;;24.86;32.82
50854;BME280;44154;45.506;-122.806;2022-12-07T07:14:54;101372.41;;;24.77;32.86
50854;BME280;44154;45.506;-122.806;2022-12-07T07:17:21;101382.13;;;24.85;32.83
50854;BME280;44154;45.506;-122.806;2022-12-07T07:19:47;101372.16;;;24.79;34.68
50854;BME280;44154;45.506;-122.806;2022-12-07T07:22:13;101366.44;;;24.80;34.42
50854;BME280;44154;45.506;-122.806;2022-12-07T07:24:39;101368.66;;;24.95;37.39
50854;BME280;44154;45.506;-122.806;2022-12-07T07:27:05;101382.97;;;25.14;38.57
50854;BME280;44154;45.506;-122.806;2022-12-07T07:29:31;101379.69;;;25.29;38.45
50854;BME280;44154;45.506;-122.806;2022-12-07T07:31:57;101384.31;;;25.40;36.67
50854;BME280;44154;45.506;-122.806;2022-12-07T07:34:23;101384.41;;;25.45;35.47
50854;BME280;44154;45.506;-122.806;2022-12-07T07:36:50;101382.50;;;25.46;34.61
50854;BME280;44154;45.506;-122.806;2022-12-07T07:39:16;101363.00;;;25.31;34.63
50854;BME280;44154;45.506;-122.806;2022-12-07T07:41:42;101374.09;;;25.36;34.33
50854;BME280;44154;45.506;-122.806;2022-12-07T07:44:09;101390.16;;;25.44;34.54
50854;BME280;44154;45.506;-122.806;2022-12-07T07:46:35;101392.28;;;25.42;34.61
50854;BME280;44154;45.506;-122.806;2022-12-07T07:49:01;101393.84;;;25.38;34.15
50854;BME280;44154;45.506;-122.806;2022-12-07T07:51:28;101380.53;;;25.30;34.39
50854;BME280;44154;45.506;-122.806;2022-12-07T07:53:54;101363.31;;;25.17;34.46
50854;BME280;44154;45.506;-122.806;2022-12-07T07:56:20;101395.16;;;25.35;34.47
50854;BME280;44154;45.506;-122.806;2022-12-07T07:58:46;101390.78;;;25.34;34.40
50854;BME280;44154;45.506;-122.806;2022-12-07T08:01:12;101387.44;;;25.32;34.45
50854;BME280;44154;45.506;-122.806;2022-12-07T08:03:39;101393.03;;;25.37;34.90
50854;BME280;44154;45.506;-122.806;2022-12-07T08:06:05;101375.97;;;25.35;35.19
50854;BME280;44154;45.506;-122.806;2022-12-07T08:08:32;101387.56;;;25.54;34.69
50854;BME280;44154;45.506;-122.806;2022-12-07T08:10:58;101383.28;;;25.58;34.45
50854;BME280;44154;45.506;-122.806;2022-12-07T08:13:27;101367.78;;;25.52;34.01
50854;BME280;44154;45.506;-122.806;2022-12-07T08:15:53;101384.34;;;25.57;34.05
50854;BME280;44154;45.506;-122.806;2022-12-07T08:18:19;101378.25;;;25.55;33.86
50854;BME280;44154;45.506;-122.806;2022-12-07T08:20:45;101362.75;;;25.44;33.85
50854;BME280;44154;45.506;-122.806;2022-12-07T08:23:12;101369.97;;;25.50;33.85
50854;BME280;44154;45.506;-122.806;2022-12-07T08:25:38;101370.47;;;25.47;33.79
50854;BME280;44154;45.506;-122.806;2022-12-07T08:28:05;101338.34;;;25.31;33.72
50854;BME280;44154;45.506;-122.806;2022-12-07T08:30:31;101361.06;;;25.43;33.76
50854;BME280;44154;45.506;-122.806;2022-12-07T08:32:58;101350.50;;;25.35;34.15
50854;BME280;44154;45.506;-122.806;2022-12-07T08:35:24;101332.03;;;25.30;34.46
50854;BME280;44154;45.506;-122.806;2022-12-07T08:37:51;101356.94;;;25.57;34.27
50854;BME280;44154;45.506;-122.806;2022-12-07T08:40:17;101359.25;;;25.66;33.95
50854;BME280;44154;45.506;-122.806;2022-12-07T08:42:53;101362.00;;;25.66;33.53
50854;BME280;44154;45.506;-122.806;2022-12-07T08:45:21;101367.72;;;25.64;33.55
50854;BME280;44154;45.506;-122.806;2022-12-07T08:48:01;101350.03;;;25.55;33.34
50854;BME280;44154;45.506;-122.806;2022-12-07T08:50:28;101362.16;;;25.59;33.55
50854;BME280;44154;45.506;-122.806;2022-12-07T08:52:56;101368.97;;;25.56;33.42
50854;BME280;44154;45.506;-122.806;2022-12-07T08:55:23;101357.34;;;25.49;33.31
50854;BME280;44154;45.506;-122.806;2022-12-07T08:57:51;101356.41;;;25.43;33.14
50854;BME280;44154;45.506;-122.806;2022-12-07T09:00:17;101363.88;;;25.48;33.34
50854;BME280;44154;45.506;-122.806;2022-12-07T09:02:45;101357.66;;;25.36;33.16
50854;BME280;44154;45.506;-122.806;2022-12-07T09:05:12;101369.03;;;25.44;33.27
50854;BME280;44154;45.506;-122.806;2022-12-07T09:07:41;101340.97;;;25.37;33.90
50854;BME280;44154;45.506;-122.806;2022-12-07T09:10:09;101362.97;;;25.59;33.95
50854;BME280;44154;45.506;-122.806;2022-12-07T09:12:35;101364.25;;;25.69;33.31
50854;BME280;44154;45.506;-122.806;2022-12-07T09:15:01;101360.16;;;25.71;33.43
50854;BME280;44154;45.506;-122.806;2022-12-07T09:17:32;101359.00;;;25.67;33.28
50854;BME280;44154;45.506;-122.806;2022-12-07T09:19:59;101369.97;;;25.67;32.89
50854;BME280;44154;45.506;-122.806;2022-12-07T09:22:30;101362.47;;;25.62;33.24
50854;BME280;44154;45.506;-122.806;2022-12-07T09:24:58;101353.84;;;25.54;32.81
50854;BME280;44154;45.506;-122.806;2022-12-07T09:27:24;101355.75;;;25.53;33.20
50854;BME280;44154;45.506;-122.806;2022-12-07T09:29:51;101360.66;;;25.51;33.33
50854;BME280;44154;45.506;-122.806;2022-12-07T09:32:17;101362.50;;;25.45;32.89
50854;BME280;44154;45.506;-122.806;2022-12-07T09:34:44;101365.47;;;25.44;33.11
50854;BME280;44154;45.506;-122.806;2022-12-07T09:37:10;101362.13;;;25.42;32.78
50854;BME280;44154;45.506;-122.806;2022-12-07T09:39:39;101354.91;;;25.36;33.14
50854;BME280;44154;45.506;-122.806;2022-12-07T09:42:07;101347.19;;;25.33;33.57
50854;BME280;44154;45.506;-122.806;2022-12-07T09:44:34;101346.06;;;25.45;33.55
50854;BME280;44154;45.506;-122.806;2022-12-07T09:47:01;101363.84;;;25.60;33.04
50854;BME280;44154;45.506;-122.806;2022-12-07T09:49:30;101351.34;;;25.52;32.86
50854;BME280;44154;45.506;-122.806;2022-12-07T09:52:20;101370.13;;;25.60;32.59
50854;BME280;44154;45.506;-122.806;2022-12-07T09:54:51;101351.84;;;25.49;32.57
50854;BME280;44154;45.506;-122.806;2022-12-07T09:57:26;101368.66;;;25.53;32.57
50854;BME280;44154;45.506;-122.806;2022-12-07T09:59:55;101366.63;;;25.48;32.63
50854;BME280;44154;45.506;-122.806;2022-12-07T10:02:47;101369.28;;;25.43;32.38
50854;BME280;44154;45.506;-122.806;2022-12-07T10:05:22;101373.59;;;25.39;32.21
50854;BME280;44154;45.506;-122.806;2022-12-07T10:07:50;101369.44;;;25.36;32.37
50854;BME280;44154;45.506;-122.806;2022-12-07T10:10:23;101371.84;;;25.33;31.94
50854;BME280;44154;45.506;-122.806;2022-12-07T10:12:55;101366.25;;;25.27;33.00
50854;BME280;44154;45.506;-122.806;2022-12-07T10:15:22;101370.28;;;25.37;33.27
50854;BME280;44154;45.506;-122.806;2022-12-07T10:17:52;101370.97;;;25.44;33.05
50854;BME280;44154;45.506;-122.806;2022-12-07T10:20:26;101367.72;;;25.47;32.51
50854;BME280;44154;45.506;-122.806;2022-12-07T10:23:02;101366.16;;;25.51;32.25
50854;BME280;44154;45.506;-122.806;2022-12-07T10:25:31;101368.28;;;25.49;32.29
50854;BME280;44154;45.506;-122.806;2022-12-07T10:30:49;101370.97;;;25.44;32.14
50854;BME280;44154;45.506;-122.806;2022-12-07T10:35:56;101366.38;;;25.33;32.06
50854;BME280;44154;45.506;-122.806;2022-12-07T10:38:25;101366.94;;;25.35;32.04
50854;BME280;44154;45.506;-122.806;2022-12-07T10:41:06;101371.22;;;25.31;31.98
50854;BME280;44154;45.506;-122.806;2022-12-07T10:43:33;101371.22;;;25.31;33.35
50854;BME280;44154;45.506;-122.806;2022-12-07T10:49:51;101365.13;;;25.40;34.76
50854;BME280;44154;45.506;-122.806;2022-12-07T10:55:46;101360.47;;;25.41;33.62
50854;BME280;44154;45.506;-122.806;2022-12-07T11:01:33;101355.50;;;25.38;33.51
50854;BME280;44154;45.506;-122.806;2022-12-07T11:04:18;101354.91;;;25.36;33.70
50854;BME280;44154;45.506;-122.806;2022-12-07T11:37:24;101299.06;;;25.25;33.62
50854;BME280;44154;45.506;-122.806;2022-12-07T11:40:00;101312.66;;;25.32;33.79
50854;BME280;44154;45.506;-122.806;2022-12-07T11:42:37;101298.81;;;25.26;33.70
50854;BME280;44154;45.506;-122.806;2022-12-07T11:47:55;101303.34;;;25.33;34.79
50854;BME280;44154;45.506;-122.806;2022-12-07T11:53:17;101300.69;;;25.38;34.12
50854;BME280;44154;45.506;-122.806;2022-12-07T12:06:35;101306.41;;;25.36;33.53
50854;BME280;44154;45.506;-122.806;2022-12-07T12:09:18;101302.25;;;25.34;33.57
50854;BME280;44154;45.506;-122.806;2022-12-07T12:17:47;101303.59;;;25.31;34.73
50854;BME280;44154;45.506;-122.806;2022-12-07T12:25:44;101309.81;;;25.43;33.76
50854;BME280;44154;45.506;-122.806;2022-12-07T12:28:23;101305.19;;;25.44;33.67
50854;BME280;44154;45.506;-122.806;2022-12-07T12:31:15;101305.41;;;25.42;33.46
50854;BME280;44154;45.506;-122.806;2022-12-07T12:33:53;101300.69;;;25.38;33.33
50854;BME280;44154;45.506;-122.806;2022-12-07T12:36:25;101310.91;;;25.42;33.22
50854;BME280;44154;45.506;-122.806;2022-12-07T12:46:53;101301.69;;;25.32;33.27
50854;BME280;44154;45.506;-122.806;2022-12-07T12:54:38;101290.38;;;25.45;33.61
50854;BME280;44154;45.506;-122.806;2022-12-07T13:02:30;101274.59;;;25.35;33.05
50854;BME280;44154;45.506;-122.806;2022-12-07T13:26:35;101282.06;;;25.74;33.06
50854;BME280;44154;45.506;-122.806;2022-12-07T13:29:18;101271.34;;;25.72;32.64
50854;BME280;44154;45.506;-122.806;2022-12-07T13:31:57;101269.94;;;25.70;32.67
50854;BME280;44154;45.506;-122.806;2022-12-07T13:37:15;101263.38;;;25.71;33.26
50854;BME280;44154;45.506;-122.806;2022-12-07T13:39:47;101266.47;;;25.74;33.20
50854;BME280;44154;45.506;-122.806;2022-12-07T13:44:56;101270.41;;;25.84;32.83
50854;BME280;44154;45.506;-122.806;2022-12-07T13:47:46;101273.50;;;25.87;32.36
50854;BME280;44154;45.506;-122.806;2022-12-07T13:50:29;101257.47;;;25.79;32.39
50854;BME280;44154;45.506;-122.806;2022-12-07T13:52:57;101253.00;;;25.73;32.64
50854;BME280;44154;45.506;-122.806;2022-12-07T13:55:23;101270.16;;;25.85;32.41
50854;BME280;44154;45.506;-122.806;2022-12-07T13:57:51;101273.41;;;25.82;32.13
50854;BME280;44154;45.506;-122.806;2022-12-07T14:00:20;101277.75;;;25.78;32.32
50854;BME280;44154;45.506;-122.806;2022-12-07T14:02:57;101279.06;;;25.75;32.34
50854;BME280;44154;45.506;-122.806;2022-12-07T14:05:32;101281.50;;;25.72;31.90
50854;BME280;44154;45.506;-122.806;2022-12-07T14:08:04;101286.38;;;25.70;32.20
50854;BME280;44154;45.506;-122.806;2022-12-07T14:12:59;101284.16;;;25.67;32.21
50854;BME280;44154;45.506;-122.806;2022-12-07T14:15:33;101290.13;;;25.63;31.72
50854;BME280;44154;45.506;-122.806;2022-12-07T14:18:02;101281.34;;;25.61;32.16
50854;BME280;44154;45.506;-122.806;2022-12-07T14:20:34;101285.41;;;25.59;32.22
50854;BME280;44154;45.506;-122.806;2022-12-07T14:23:02;101284.81;;;25.57;32.33
50854;BME280;44154;45.506;-122.806;2022-12-07T14:25:51;101291.16;;;25.57;32.52
50854;BME280;44154;45.506;-122.806;2022-12-07T14:28:35;101287.41;;;25.63;33.02
50854;BME280;44154;45.506;-122.806;2022-12-07T14:31:02;101294.03;;;25.68;32.92
50854;BME280;44154;45.506;-122.806;2022-12-07T14:33:29;101293.78;;;25.69;32.82
50854;BME280;44154;45.506;-122.806;2022-12-07T14:35:56;101278.91;;;25.65;32.55
50854;BME280;44154;45.506;-122.806;2022-12-07T14:38:24;101292.13;;;25.68;31.88
50854;BME280;44154;45.506;-122.806;2022-12-07T14:40:54;101290.13;;;25.63;31.97
50854;BME280;44154;45.506;-122.806;2022-12-07T14:43:40;101289.06;;;25.65;32.11
50854;BME280;44154;45.506;-122.806;2022-12-07T14:46:06;101284.50;;;25.53;32.11
50854;BME280;44154;45.506;-122.806;2022-12-07T14:48:32;101296.03;;;25.55;32.03
50854;BME280;44154;45.506;-122.806;2022-12-07T14:50:59;101294.66;;;25.53;32.23
50854;BME280;44154;45.506;-122.806;2022-12-07T14:53:29;101290.56;;;25.55;32.46
50854;BME280;44154;45.506;-122.806;2022-12-07T14:55:57;101296.38;;;25.59;32.61
50854;BME280;44154;45.506;-122.806;2022-12-07T14:58:23;101275.13;;;25.49;32.33
50854;BME280;44154;45.506;-122.806;2022-12-07T15:00:49;101273.44;;;25.48;32.25
50854;BME280;44154;45.506;-122.806;2022-12-07T15:03:15;101291.91;;;25.53;32.02
50854;BME280;44154;45.506;-122.806;2022-12-07T15:05:42;101298.22;;;25.53;32.03
50854;BME280;44154;45.506;-122.806;2022-12-07T15:08:12;101291.16;;;25.57;32.41
50854;BME280;44154;45.506;-122.806;2022-12-07T15:10:38;101294.53;;;25.65;32.35